createdAt,value
2019-01-08T00:01:14.394Z,4.93
2019-01-08T00:17:36.111Z,5.02
2019-01-08T00:22:48.008Z,5.05
2019-01-08T00:28:04.572Z,5.13
2019-01-08T00:38:19.436Z,5.15
2019-01-08T00:43:24.363Z,5.20
2019-01-08T00:59:48.149Z,5.23
2019-01-08T01:26:30.060Z,5.32
2019-01-08T01:31:45.611Z,5.35
2019-01-08T01:36:50.017Z,5.36
2019-01-08T01:41:54.281Z,5.37
2019-01-08T01:47:17.917Z,5.47
2019-01-08T01:52:41.607Z,5.54
2019-01-08T02:03:14.790Z,5.61
2019-01-08T02:08:19.050Z,5.64
2019-01-08T02:18:52.424Z,5.71
2019-01-08T02:29:25.188Z,5.85
2019-01-08T02:34:29.820Z,5.95
2019-01-08T02:39:34.088Z,6.01
2019-01-08T02:54:57.402Z,5.79
2019-01-08T03:10:59.784Z,5.57
2019-01-08T03:16:04.025Z,5.62
2019-01-08T03:31:27.644Z,5.63
2019-01-08T03:36:43.897Z,5.58
2019-01-08T03:41:48.471Z,5.57
2019-01-08T03:46:55.064Z,5.55
2019-01-08T03:51:59.391Z,5.55
2019-01-08T03:57:03.696Z,5.59
2019-01-08T04:02:07.965Z,5.54
2019-01-08T04:07:12.257Z,5.58
2019-01-08T04:12:16.481Z,5.59
2019-01-08T04:17:21.067Z,5.63
2019-01-08T04:22:25.606Z,5.57
2019-01-08T04:27:29.886Z,5.60
2019-01-08T04:32:34.105Z,5.59
2019-01-08T04:37:38.372Z,5.55
2019-01-08T04:42:42.681Z,5.56
2019-01-08T04:47:46.896Z,5.58
2019-01-08T04:52:51.110Z,5.58
2019-01-08T04:57:55.547Z,5.58
2019-01-08T05:02:59.807Z,5.54
2019-01-08T05:08:04.133Z,5.51
2019-01-08T05:13:08.379Z,5.47
2019-01-08T05:18:12.641Z,5.50
2019-01-08T05:23:16.936Z,5.48
2019-01-08T05:28:21.169Z,5.54
2019-01-08T05:33:25.501Z,5.46
2019-01-08T05:38:29.787Z,5.47
2019-01-08T05:43:34.033Z,5.48
2019-01-08T05:48:38.274Z,5.49
2019-01-08T05:53:42.630Z,5.45
2019-01-08T05:58:46.830Z,5.47
2019-01-08T06:03:51.144Z,5.47
2019-01-08T06:08:55.379Z,5.46
2019-01-08T06:13:59.748Z,5.43
2019-01-08T06:19:03.992Z,5.46
2019-01-08T06:24:08.214Z,5.41
2019-01-08T06:29:12.641Z,5.41
2019-01-08T06:34:16.886Z,5.43
2019-01-08T06:39:21.147Z,5.45
2019-01-08T06:44:25.453Z,5.43
2019-01-08T06:49:29.799Z,5.46
2019-01-08T06:54:34.375Z,5.43
2019-01-08T06:59:38.654Z,5.42
2019-01-08T07:04:42.887Z,5.45
2019-01-08T07:09:47.228Z,5.39
2019-01-08T07:14:51.656Z,5.38
2019-01-08T07:19:56.013Z,5.38
2019-01-08T07:25:00.545Z,5.37
2019-01-08T07:30:05.148Z,5.39
2019-01-08T07:35:09.506Z,5.33
2019-01-08T07:40:13.862Z,5.34
2019-01-08T07:45:18.263Z,5.40
2019-01-08T07:55:32.621Z,5.28
2019-01-08T08:00:55.916Z,5.13
2019-01-08T08:06:00.218Z,5.20
2019-01-08T08:16:13.998Z,5.15
2019-01-08T08:21:37.632Z,5.14
2019-01-08T08:26:41.957Z,5.13
2019-01-08T08:31:46.278Z,5.15
2019-01-08T08:37:11.874Z,5.06
2019-01-08T08:42:27.511Z,5.04
2019-01-08T08:47:32.146Z,5.11
2019-01-08T08:52:36.382Z,5.11
2019-01-08T08:57:40.634Z,5.09
2019-01-08T09:08:13.406Z,5.00
2019-01-08T09:13:17.698Z,4.94
2019-01-08T09:33:51.284Z,5.11
2019-01-08T09:38:55.579Z,5.06
2019-01-08T09:43:59.956Z,5.12
2019-01-08T09:49:04.510Z,5.15
2019-01-08T09:54:08.895Z,5.14
2019-01-08T09:59:13.119Z,5.19
2019-01-08T10:04:17.600Z,5.19
2019-01-08T10:09:21.896Z,5.15
2019-01-08T10:14:26.442Z,5.02
2019-01-08T10:19:30.762Z,5.04
2019-01-08T10:24:35.105Z,4.99
2019-01-08T10:29:39.337Z,5.01
2019-01-08T10:34:43.651Z,5.01
2019-01-08T10:39:47.872Z,4.99
2019-01-08T10:44:52.232Z,5.01
2019-01-08T10:49:56.556Z,4.99
2019-01-08T10:55:00.783Z,4.87
2019-01-08T11:00:05.521Z,4.83
2019-01-08T11:05:09.760Z,4.83
2019-01-08T11:10:14.382Z,4.90
2019-01-08T11:15:18.628Z,4.88
2019-01-08T11:20:23.053Z,4.98
2019-01-08T11:25:28.314Z,5.01
2019-01-08T11:30:32.528Z,5.04
2019-01-08T11:35:42.155Z,5.09
2019-01-08T11:40:42.763Z,5.11
2019-01-08T11:45:47.147Z,5.17
2019-01-08T11:50:51.379Z,5.23
2019-01-08T11:55:55.891Z,5.25
2019-01-08T12:00:59.953Z,5.26
2019-01-08T12:06:04.263Z,5.20
2019-01-08T12:11:08.559Z,5.18
2019-01-08T12:16:12.886Z,5.16
2019-01-08T12:21:17.508Z,5.16
2019-01-08T12:26:22.124Z,5.16
2019-01-08T12:31:26.406Z,5.21
2019-01-08T12:36:30.750Z,5.26
2019-01-08T12:41:35.520Z,5.40
2019-01-08T12:46:40.038Z,5.44
2019-01-08T12:51:44.302Z,5.39
2019-01-08T12:56:48.628Z,5.41
2019-01-08T13:01:53.008Z,5.37
2019-01-08T13:06:57.336Z,5.19
2019-01-08T13:12:01.556Z,4.93
2019-01-08T13:17:11.454Z,4.58
2019-01-08T13:22:11.797Z,4.22
2019-01-08T13:27:16.208Z,4.21
2019-01-08T13:32:23.328Z,4.12
2019-01-08T13:37:26.863Z,4.08
2019-01-08T13:42:31.334Z,4.16
2019-01-08T13:47:35.752Z,4.24
2019-01-08T13:52:40.449Z,4.26
2019-01-08T13:57:44.759Z,4.20
2019-01-08T14:02:49.019Z,4.13
2019-01-08T14:07:53.348Z,4.04
2019-01-08T14:12:57.680Z,3.99
2019-01-08T14:18:01.948Z,4.12
2019-01-08T14:23:06.752Z,4.22
2019-01-08T14:28:11.285Z,4.27
2019-01-08T14:33:15.889Z,4.36
2019-01-08T14:38:20.169Z,4.47
2019-01-08T14:43:24.493Z,4.56
2019-01-08T14:48:28.865Z,4.57
2019-01-08T14:53:33.189Z,4.61
2019-01-08T14:58:37.508Z,4.73
2019-01-08T15:03:41.856Z,4.72
2019-01-08T15:08:46.186Z,4.65
2019-01-08T15:13:50.581Z,4.55
2019-01-08T15:18:54.996Z,4.47
2019-01-08T15:23:59.675Z,4.40
2019-01-08T15:29:03.907Z,4.41
2019-01-08T15:34:08.160Z,4.47
2019-01-08T15:39:12.510Z,4.54
2019-01-08T15:44:17.071Z,4.52
2019-01-08T15:49:21.415Z,4.61
2019-01-08T15:54:25.637Z,4.64
2019-01-08T15:59:29.911Z,4.54
2019-01-08T16:04:34.220Z,4.48
2019-01-08T16:09:38.823Z,4.44
2019-01-08T16:14:43.510Z,4.44
2019-01-08T16:19:48.035Z,4.45
2019-01-08T16:24:52.476Z,4.45
2019-01-08T16:29:56.749Z,4.45
2019-01-08T16:35:01.090Z,4.46
2019-01-08T16:40:05.959Z,4.47
2019-01-08T16:45:10.818Z,4.43
2019-01-08T16:50:15.941Z,4.40
2019-01-08T16:55:20.354Z,4.39
2019-01-08T17:00:24.685Z,4.37
2019-01-08T17:05:29.010Z,4.42
2019-01-08T17:10:33.317Z,4.44
2019-01-08T17:15:37.837Z,4.44
2019-01-08T17:20:42.229Z,4.42
2019-01-08T17:25:48.025Z,4.40
2019-01-08T17:30:52.537Z,4.48
2019-01-08T17:35:56.844Z,4.45
2019-01-08T17:41:01.102Z,4.49
2019-01-08T17:46:05.416Z,4.47
2019-01-08T17:51:09.721Z,4.50
2019-01-08T17:56:14.145Z,4.54
2019-01-08T18:01:24.701Z,4.49
2019-01-08T18:06:28.944Z,4.48
2019-01-08T18:11:33.241Z,4.49
2019-01-08T18:16:37.476Z,4.38
2019-01-08T18:21:41.903Z,4.42
2019-01-08T18:26:46.216Z,4.45
2019-01-08T18:31:50.904Z,4.41
2019-01-08T18:36:55.154Z,4.35
2019-01-08T18:41:59.792Z,4.47
2019-01-08T18:47:04.219Z,4.41
2019-01-08T18:52:08.592Z,4.46
2019-01-08T18:57:12.809Z,4.47
2019-01-08T19:02:17.452Z,4.41
2019-01-08T19:07:25.496Z,4.03
2019-01-08T19:12:29.855Z,3.79
2019-01-08T19:17:34.458Z,3.68
2019-01-08T19:22:38.829Z,3.54
2019-01-08T19:27:44.003Z,3.36
2019-01-08T19:32:48.220Z,3.13
2019-01-08T19:37:52.547Z,3.03
2019-01-08T19:42:57.023Z,3.01
2019-01-08T19:48:01.278Z,3.06
2019-01-08T19:53:05.838Z,3.11
2019-01-08T19:58:10.088Z,3.10
2019-01-08T20:03:14.402Z,3.22
2019-01-08T20:08:18.650Z,3.27
2019-01-08T20:13:22.911Z,3.35
2019-01-08T20:18:27.297Z,3.43
2019-01-08T20:23:34.753Z,3.53
2019-01-08T20:28:39.061Z,3.67
2019-01-08T20:33:43.655Z,3.71
2019-01-08T20:38:48.036Z,3.77
2019-01-08T20:43:52.453Z,3.65
2019-01-08T20:48:56.822Z,3.55
2019-01-08T20:54:01.275Z,3.55
2019-01-08T20:59:05.856Z,3.46
2019-01-08T21:04:10.189Z,3.41
2019-01-08T21:09:14.460Z,3.39
2019-01-08T21:14:19.061Z,3.40
2019-01-08T21:19:23.310Z,3.43
2019-01-08T21:24:28.873Z,3.41
2019-01-08T21:29:33.488Z,3.34
2019-01-08T21:34:44.263Z,3.22
2019-01-08T21:39:44.476Z,3.08
2019-01-08T21:44:48.821Z,2.98
2019-01-08T21:49:53.413Z,2.99
2019-01-08T21:54:57.847Z,2.94
2019-01-08T22:00:02.179Z,2.92
2019-01-08T22:05:06.591Z,2.96
2019-01-08T22:10:10.967Z,3.02
2019-01-08T22:15:17.852Z,3.01
2019-01-08T22:20:22.809Z,3.02
2019-01-08T22:25:27.492Z,2.93
2019-01-08T22:30:31.780Z,2.82
2019-01-08T22:41:24.857Z,2.83
2019-01-08T22:46:48.305Z,2.99
2019-01-08T22:57:13.487Z,3.14
2019-01-08T23:02:17.796Z,3.14
2019-01-08T23:13:09.758Z,3.18
2019-01-08T23:18:33.088Z,3.11
2019-01-08T23:23:56.346Z,3.11
2019-01-08T23:34:29.732Z,2.80
2019-01-08T23:39:33.957Z,2.68
2019-01-08T23:44:38.205Z,2.65
2019-01-08T23:55:31.133Z,2.88
